sensor_id;sensor_type;location;lat;lon;timestamp;P1;durP1;ratioP1;P2;durP2;ratioP2
3433;SDS011;1730;41.932;25.548;2022-10-16T00:00:32;14.33;;;12.10;;
3433;SDS011;1730;41.932;25.548;2022-10-16T00:02:59;21.53;;;12.20;;
3433;SDS011;1730;41.932;25.548;2022-10-16T00:05:25;15.30;;;11.70;;
3433;SDS011;1730;41.932;25.548;2022-10-16T00:07:50;24.40;;;12.47;;
3433;SDS011;1730;41.932;25.548;2022-10-16T00:10:16;17.40;;;11.70;;
3433;SDS011;1730;41.932;25.548;2022-10-16T00:12:41;15.80;;;12.17;;
3433;SDS011;1730;41.932;25.548;2022-10-16T00:15:07;16.20;;;13.40;;
3433;SDS011;1730;41.932;25.548;2022-10-16T00:17:33;20.13;;;13.93;;
3433;SDS011;1730;41.932;25.548;2022-10-16T00:19:58;22.10;;;14.33;;
3433;SDS011;1730;41.932;25.548;2022-10-16T00:22:24;14.50;;;11.40;;
3433;SDS011;1730;41.932;25.548;2022-10-16T00:24:50;16.93;;;13.03;;
3433;SDS011;1730;41.932;25.548;2022-10-16T00:27:16;19.03;;;13.17;;
3433;SDS011;1730;41.932;25.548;2022-10-16T00:29:41;28.13;;;13.17;;
3433;SDS011;1730;41.932;25.548;2022-10-16T00:32:07;24.17;;;13.77;;
3433;SDS011;1730;41.932;25.548;2022-10-16T00:34:33;19.40;;;12.03;;
3433;SDS011;1730;41.932;25.548;2022-10-16T00:36:59;23.77;;;12.50;;
3433;SDS011;1730;41.932;25.548;2022-10-16T00:39:25;20.43;;;13.17;;
3433;SDS011;1730;41.932;25.548;2022-10-16T00:41:50;15.60;;;12.43;;
3433;SDS011;1730;41.932;25.548;2022-10-16T00:47:10;25.27;;;12.77;;
3433;SDS011;1730;41.932;25.548;2022-10-16T00:49:40;29.13;;;13.30;;
3433;SDS011;1730;41.932;25.548;2022-10-16T00:52:05;28.70;;;11.57;;
3433;SDS011;1730;41.932;25.548;2022-10-16T00:54:31;25.67;;;11.93;;
3433;SDS011;1730;41.932;25.548;2022-10-16T00:56:59;24.60;;;12.13;;
3433;SDS011;1730;41.932;25.548;2022-10-16T01:01:58;29.47;;;12.57;;
3433;SDS011;1730;41.932;25.548;2022-10-16T01:04:24;17.83;;;10.70;;
3433;SDS011;1730;41.932;25.548;2022-10-16T01:15:28;16.37;;;11.83;;
3433;SDS011;1730;41.932;25.548;2022-10-16T01:20:26;21.43;;;10.80;;
3433;SDS011;1730;41.932;25.548;2022-10-16T01:28:10;21.40;;;12.40;;
3433;SDS011;1730;41.932;25.548;2022-10-16T01:30:38;14.63;;;9.90;;
3433;SDS011;1730;41.932;25.548;2022-10-16T01:35:43;14.47;;;10.10;;
3433;SDS011;1730;41.932;25.548;2022-10-16T01:38:17;11.37;;;10.00;;
3433;SDS011;1730;41.932;25.548;2022-10-16T01:40:46;14.07;;;10.80;;
3433;SDS011;1730;41.932;25.548;2022-10-16T01:43:25;14.97;;;10.10;;
3433;SDS011;1730;41.932;25.548;2022-10-16T01:45:55;15.10;;;10.07;;
3433;SDS011;1730;41.932;25.548;2022-10-16T01:48:23;10.87;;;9.77;;
3433;SDS011;1730;41.932;25.548;2022-10-16T01:51:01;14.73;;;10.20;;
3433;SDS011;1730;41.932;25.548;2022-10-16T01:53:31;19.20;;;11.50;;
3433;SDS011;1730;41.932;25.548;2022-10-16T01:55:58;14.10;;;9.80;;
3433;SDS011;1730;41.932;25.548;2022-10-16T01:58:25;14.60;;;9.47;;
3433;SDS011;1730;41.932;25.548;2022-10-16T02:00:53;20.20;;;9.70;;
3433;SDS011;1730;41.932;25.548;2022-10-16T02:03:20;19.50;;;10.20;;
3433;SDS011;1730;41.932;25.548;2022-10-16T02:05:47;21.50;;;10.00;;
3433;SDS011;1730;41.932;25.548;2022-10-16T02:08:14;16.83;;;9.03;;
3433;SDS011;1730;41.932;25.548;2022-10-16T02:10:40;18.40;;;8.80;;
3433;SDS011;1730;41.932;25.548;2022-10-16T02:13:08;17.20;;;10.07;;
3433;SDS011;1730;41.932;25.548;2022-10-16T02:15:37;13.30;;;8.33;;
3433;SDS011;1730;41.932;25.548;2022-10-16T02:18:03;16.70;;;9.80;;
3433;SDS011;1730;41.932;25.548;2022-10-16T02:20:40;12.70;;;8.83;;
3433;SDS011;1730;41.932;25.548;2022-10-16T02:23:26;17.23;;;9.77;;
3433;SDS011;1730;41.932;25.548;2022-10-16T02:26:03;14.43;;;9.30;;
3433;SDS011;1730;41.932;25.548;2022-10-16T02:28:38;14.17;;;9.70;;
3433;SDS011;1730;41.932;25.548;2022-10-16T02:31:09;18.77;;;10.10;;
3433;SDS011;1730;41.932;25.548;2022-10-16T02:33:37;18.77;;;10.80;;
3433;SDS011;1730;41.932;25.548;2022-10-16T02:36:05;14.47;;;9.07;;
3433;SDS011;1730;41.932;25.548;2022-10-16T02:38:31;13.93;;;8.77;;
3433;SDS011;1730;41.932;25.548;2022-10-16T02:40:57;16.30;;;9.37;;
3433;SDS011;1730;41.932;25.548;2022-10-16T02:43:24;12.30;;;9.07;;
3433;SDS011;1730;41.932;25.548;2022-10-16T02:45:51;10.63;;;9.10;;
3433;SDS011;1730;41.932;25.548;2022-10-16T02:48:16;16.00;;;8.33;;
3433;SDS011;1730;41.932;25.548;2022-10-16T02:50:42;12.40;;;9.40;;
3433;SDS011;1730;41.932;25.548;2022-10-16T02:53:07;14.90;;;9.60;;
3433;SDS011;1730;41.932;25.548;2022-10-16T02:55:33;13.97;;;10.90;;
3433;SDS011;1730;41.932;25.548;2022-10-16T02:57:58;12.97;;;9.77;;
3433;SDS011;1730;41.932;25.548;2022-10-16T03:00:24;15.70;;;9.10;;
3433;SDS011;1730;41.932;25.548;2022-10-16T03:02:49;13.03;;;9.63;;
3433;SDS011;1730;41.932;25.548;2022-10-16T03:05:15;20.87;;;10.50;;
3433;SDS011;1730;41.932;25.548;2022-10-16T03:07:41;16.50;;;9.10;;
3433;SDS011;1730;41.932;25.548;2022-10-16T03:10:07;12.47;;;9.77;;
3433;SDS011;1730;41.932;25.548;2022-10-16T03:12:33;12.20;;;9.50;;
3433;SDS011;1730;41.932;25.548;2022-10-16T03:14:58;17.00;;;10.30;;
3433;SDS011;1730;41.932;25.548;2022-10-16T03:17:24;12.17;;;9.30;;
3433;SDS011;1730;41.932;25.548;2022-10-16T03:19:50;13.93;;;9.07;;
3433;SDS011;1730;41.932;25.548;2022-10-16T03:22:16;16.73;;;9.97;;
3433;SDS011;1730;41.932;25.548;2022-10-16T03:24:42;12.33;;;9.97;;
3433;SDS011;1730;41.932;25.548;2022-10-16T03:27:07;10.10;;;8.30;;
3433;SDS011;1730;41.932;25.548;2022-10-16T03:29:33;11.50;;;8.73;;
3433;SDS011;1730;41.932;25.548;2022-10-16T03:31:59;14.53;;;9.43;;
3433;SDS011;1730;41.932;25.548;2022-10-16T03:34:25;14.67;;;11.50;;
3433;SDS011;1730;41.932;25.548;2022-10-16T03:36:51;15.03;;;10.00;;
3433;SDS011;1730;41.932;25.548;2022-10-16T03:39:17;13.90;;;10.20;;
3433;SDS011;1730;41.932;25.548;2022-10-16T03:41:43;10.20;;;8.90;;
3433;SDS011;1730;41.932;25.548;2022-10-16T03:44:08;22.00;;;9.90;;
3433;SDS011;1730;41.932;25.548;2022-10-16T03:46:34;11.60;;;8.17;;
3433;SDS011;1730;41.932;25.548;2022-10-16T03:49:00;14.63;;;11.20;;
3433;SDS011;1730;41.932;25.548;2022-10-16T03:51:25;10.13;;;8.93;;
3433;SDS011;1730;41.932;25.548;2022-10-16T03:53:51;19.83;;;10.50;;
3433;SDS011;1730;41.932;25.548;2022-10-16T03:56:16;12.83;;;9.70;;
3433;SDS011;1730;41.932;25.548;2022-10-16T03:58:42;9.77;;;8.77;;
3433;SDS011;1730;41.932;25.548;2022-10-16T04:01:07;12.67;;;9.80;;
3433;SDS011;1730;41.932;25.548;2022-10-16T04:03:34;13.00;;;7.93;;
3433;SDS011;1730;41.932;25.548;2022-10-16T04:06:00;13.20;;;8.37;;
3433;SDS011;1730;41.932;25.548;2022-10-16T04:08:25;14.43;;;9.23;;
3433;SDS011;1730;41.932;25.548;2022-10-16T04:10:51;15.83;;;9.60;;
3433;SDS011;1730;41.932;25.548;2022-10-16T04:13:16;14.00;;;9.23;;
3433;SDS011;1730;41.932;25.548;2022-10-16T04:15:42;12.53;;;9.70;;
3433;SDS011;1730;41.932;25.548;2022-10-16T04:18:07;15.10;;;10.40;;
3433;SDS011;1730;41.932;25.548;2022-10-16T04:20:33;12.00;;;9.30;;
3433;SDS011;1730;41.932;25.548;2022-10-16T04:22:59;16.10;;;8.60;;
3433;SDS011;1730;41.932;25.548;2022-10-16T04:25:25;11.13;;;9.80;;
3433;SDS011;1730;41.932;25.548;2022-10-16T04:27:52;13.30;;;9.00;;
3433;SDS011;1730;41.932;25.548;2022-10-16T04:30:18;15.97;;;8.93;;
3433;SDS011;1730;41.932;25.548;2022-10-16T04:32:47;22.77;;;9.17;;
3433;SDS011;1730;41.932;25.548;2022-10-16T04:35:17;11.93;;;8.90;;
3433;SDS011;1730;41.932;25.548;2022-10-16T04:37:43;17.87;;;9.17;;
3433;SDS011;1730;41.932;25.548;2022-10-16T04:40:09;19.20;;;10.53;;
3433;SDS011;1730;41.932;25.548;2022-10-16T04:42:34;17.50;;;10.50;;
3433;SDS011;1730;41.932;25.548;2022-10-16T04:45:00;16.10;;;9.20;;
3433;SDS011;1730;41.932;25.548;2022-10-16T04:47:25;16.60;;;10.73;;
3433;SDS011;1730;41.932;25.548;2022-10-16T04:49:51;15.03;;;10.60;;
3433;SDS011;1730;41.932;25.548;2022-10-16T04:52:16;14.60;;;9.80;;
3433;SDS011;1730;41.932;25.548;2022-10-16T04:54:42;14.33;;;9.40;;
3433;SDS011;1730;41.932;25.548;2022-10-16T04:57:10;18.57;;;11.10;;
3433;SDS011;1730;41.932;25.548;2022-10-16T04:59:36;14.00;;;9.90;;
3433;SDS011;1730;41.932;25.548;2022-10-16T05:02:01;11.83;;;10.67;;
3433;SDS011;1730;41.932;25.548;2022-10-16T05:04:27;14.00;;;9.47;;
3433;SDS011;1730;41.932;25.548;2022-10-16T05:06:52;11.77;;;9.00;;
3433;SDS011;1730;41.932;25.548;2022-10-16T05:09:18;15.63;;;10.40;;
3433;SDS011;1730;41.932;25.548;2022-10-16T05:11:43;16.57;;;9.70;;
3433;SDS011;1730;41.932;25.548;2022-10-16T05:14:09;16.50;;;9.73;;
3433;SDS011;1730;41.932;25.548;2022-10-16T05:16:34;15.80;;;9.10;;
3433;SDS011;1730;41.932;25.548;2022-10-16T05:19:00;11.37;;;9.70;;
3433;SDS011;1730;41.932;25.548;2022-10-16T05:21:25;12.13;;;9.50;;
3433;SDS011;1730;41.932;25.548;2022-10-16T05:23:52;13.77;;;9.33;;
3433;SDS011;1730;41.932;25.548;2022-10-16T05:26:19;16.63;;;10.13;;
3433;SDS011;1730;41.932;25.548;2022-10-16T05:28:45;13.23;;;9.43;;
3433;SDS011;1730;41.932;25.548;2022-10-16T05:31:10;16.10;;;9.80;;
3433;SDS011;1730;41.932;25.548;2022-10-16T05:33:36;22.43;;;11.27;;
3433;SDS011;1730;41.932;25.548;2022-10-16T05:36:03;20.77;;;11.70;;
3433;SDS011;1730;41.932;25.548;2022-10-16T05:38:30;13.40;;;10.30;;
3433;SDS011;1730;41.932;25.548;2022-10-16T05:40:55;17.43;;;11.70;;
3433;SDS011;1730;41.932;25.548;2022-10-16T05:43:21;16.50;;;11.50;;
3433;SDS011;1730;41.932;25.548;2022-10-16T05:45:57;18.40;;;11.30;;
3433;SDS011;1730;41.932;25.548;2022-10-16T05:48:24;16.50;;;10.77;;
3433;SDS011;1730;41.932;25.548;2022-10-16T05:51:00;15.27;;;11.50;;
3433;SDS011;1730;41.932;25.548;2022-10-16T05:53:34;16.50;;;12.00;;
3433;SDS011;1730;41.932;25.548;2022-10-16T05:56:01;20.33;;;11.93;;
3433;SDS011;1730;41.932;25.548;2022-10-16T05:58:31;15.73;;;12.23;;
3433;SDS011;1730;41.932;25.548;2022-10-16T06:01:03;14.70;;;10.90;;
3433;SDS011;1730;41.932;25.548;2022-10-16T06:03:30;17.50;;;10.60;;
3433;SDS011;1730;41.932;25.548;2022-10-16T06:05:56;18.67;;;11.20;;
3433;SDS011;1730;41.932;25.548;2022-10-16T06:08:22;18.30;;;11.63;;
3433;SDS011;1730;41.932;25.548;2022-10-16T06:10:48;22.13;;;11.37;;
3433;SDS011;1730;41.932;25.548;2022-10-16T06:13:14;14.50;;;11.57;;
3433;SDS011;1730;41.932;25.548;2022-10-16T06:15:41;19.83;;;11.87;;
3433;SDS011;1730;41.932;25.548;2022-10-16T06:18:08;15.23;;;11.47;;
3433;SDS011;1730;41.932;25.548;2022-10-16T06:20:34;19.13;;;11.60;;
3433;SDS011;1730;41.932;25.548;2022-10-16T06:23:00;15.53;;;11.70;;
3433;SDS011;1730;41.932;25.548;2022-10-16T06:25:26;19.40;;;13.20;;
3433;SDS011;1730;41.932;25.548;2022-10-16T06:27:51;13.90;;;12.17;;
3433;SDS011;1730;41.932;25.548;2022-10-16T06:30:17;15.33;;;11.23;;
3433;SDS011;1730;41.932;25.548;2022-10-16T06:32:42;24.17;;;12.87;;
3433;SDS011;1730;41.932;25.548;2022-10-16T06:35:08;18.87;;;12.03;;
3433;SDS011;1730;41.932;25.548;2022-10-16T06:37:33;15.23;;;11.50;;
3433;SDS011;1730;41.932;25.548;2022-10-16T06:39:59;11.37;;;10.27;;
3433;SDS011;1730;41.932;25.548;2022-10-16T06:42:25;16.43;;;9.70;;
3433;SDS011;1730;41.932;25.548;2022-10-16T06:44:50;11.90;;;9.53;;
3433;SDS011;1730;41.932;25.548;2022-10-16T06:47:16;17.93;;;9.87;;
3433;SDS011;1730;41.932;25.548;2022-10-16T06:49:41;18.13;;;9.87;;
3433;SDS011;1730;41.932;25.548;2022-10-16T06:52:07;14.00;;;8.50;;
3433;SDS011;1730;41.932;25.548;2022-10-16T06:54:32;12.10;;;7.60;;
3433;SDS011;1730;41.932;25.548;2022-10-16T06:56:58;6.83;;;6.03;;
3433;SDS011;1730;41.932;25.548;2022-10-16T06:59:25;11.37;;;7.30;;
3433;SDS011;1730;41.932;25.548;2022-10-16T07:01:50;13.23;;;7.60;;
3433;SDS011;1730;41.932;25.548;2022-10-16T07:04:16;11.23;;;6.40;;
3433;SDS011;1730;41.932;25.548;2022-10-16T07:06:41;5.73;;;5.27;;
3433;SDS011;1730;41.932;25.548;2022-10-16T07:09:08;8.83;;;5.60;;
3433;SDS011;1730;41.932;25.548;2022-10-16T07:11:36;6.97;;;6.27;;
3433;SDS011;1730;41.932;25.548;2022-10-16T07:14:02;10.60;;;6.50;;
3433;SDS011;1730;41.932;25.548;2022-10-16T07:16:29;6.70;;;6.00;;
3433;SDS011;1730;41.932;25.548;2022-10-16T07:18:57;13.10;;;6.43;;
3433;SDS011;1730;41.932;25.548;2022-10-16T07:21:24;5.77;;;5.20;;
3433;SDS011;1730;41.932;25.548;2022-10-16T07:23:55;5.60;;;5.20;;
3433;SDS011;1730;41.932;25.548;2022-10-16T07:26:22;5.90;;;5.47;;
3433;SDS011;1730;41.932;25.548;2022-10-16T07:28:49;6.70;;;6.00;;
3433;SDS011;1730;41.932;25.548;2022-10-16T07:31:16;5.80;;;5.40;;
3433;SDS011;1730;41.932;25.548;2022-10-16T07:33:43;9.83;;;4.97;;
3433;SDS011;1730;41.932;25.548;2022-10-16T07:36:10;5.93;;;5.23;;
3433;SDS011;1730;41.932;25.548;2022-10-16T07:38:37;7.37;;;4.77;;
3433;SDS011;1730;41.932;25.548;2022-10-16T07:41:05;8.10;;;4.90;;
3433;SDS011;1730;41.932;25.548;2022-10-16T07:43:32;5.30;;;4.80;;
3433;SDS011;1730;41.932;25.548;2022-10-16T07:45:58;5.10;;;4.70;;
3433;SDS011;1730;41.932;25.548;2022-10-16T07:48:24;4.93;;;4.53;;
3433;SDS011;1730;41.932;25.548;2022-10-16T07:50:51;5.83;;;4.80;;
3433;SDS011;1730;41.932;25.548;2022-10-16T07:53:17;5.30;;;4.90;;
3433;SDS011;1730;41.932;25.548;2022-10-16T07:55:43;5.20;;;4.90;;
3433;SDS011;1730;41.932;25.548;2022-10-16T07:58:08;4.87;;;4.53;;
3433;SDS011;1730;41.932;25.548;2022-10-16T08:00:35;5.70;;;5.10;;
3433;SDS011;1730;41.932;25.548;2022-10-16T08:03:01;6.63;;;4.47;;
3433;SDS011;1730;41.932;25.548;2022-10-16T08:05:30;11.50;;;4.83;;
3433;SDS011;1730;41.932;25.548;2022-10-16T08:07:57;5.67;;;5.17;;
3433;SDS011;1730;41.932;25.548;2022-10-16T08:10:23;6.70;;;4.90;;
3433;SDS011;1730;41.932;25.548;2022-10-16T08:12:51;5.53;;;5.13;;
3433;SDS011;1730;41.932;25.548;2022-10-16T08:15:17;6.03;;;5.20;;
3433;SDS011;1730;41.932;25.548;2022-10-16T08:17:43;5.13;;;4.70;;
3433;SDS011;1730;41.932;25.548;2022-10-16T08:20:09;7.00;;;5.13;;
3433;SDS011;1730;41.932;25.548;2022-10-16T08:22:35;5.20;;;4.70;;
3433;SDS011;1730;41.932;25.548;2022-10-16T08:25:00;10.40;;;5.20;;
3433;SDS011;1730;41.932;25.548;2022-10-16T08:27:30;7.47;;;6.87;;
3433;SDS011;1730;41.932;25.548;2022-10-16T08:29:57;5.90;;;5.00;;
3433;SDS011;1730;41.932;25.548;2022-10-16T08:32:22;11.70;;;6.97;;
3433;SDS011;1730;41.932;25.548;2022-10-16T08:34:48;7.10;;;6.57;;
3433;SDS011;1730;41.932;25.548;2022-10-16T08:37:13;8.10;;;7.30;;
3433;SDS011;1730;41.932;25.548;2022-10-16T08:39:39;6.93;;;6.37;;
3433;SDS011;1730;41.932;25.548;2022-10-16T08:50:17;10.83;;;9.73;;
3433;SDS011;1730;41.932;25.548;2022-10-16T08:52:49;15.00;;;8.60;;
3433;SDS011;1730;41.932;25.548;2022-10-16T08:56:00;10.37;;;9.40;;
3433;SDS011;1730;41.932;25.548;2022-10-16T08:58:12;10.67;;;9.67;;
3433;SDS011;1730;41.932;25.548;2022-10-16T09:00:39;10.67;;;9.67;;
3433;SDS011;1730;41.932;25.548;2022-10-16T09:12:04;9.50;;;8.60;;
3433;SDS011;1730;41.932;25.548;2022-10-16T09:14:40;10.90;;;9.87;;
3433;SDS011;1730;41.932;25.548;2022-10-16T09:19:53;10.67;;;8.80;;
3433;SDS011;1730;41.932;25.548;2022-10-16T09:22:27;10.70;;;9.03;;
3433;SDS011;1730;41.932;25.548;2022-10-16T09:24:59;10.30;;;9.37;;
3433;SDS011;1730;41.932;25.548;2022-10-16T09:27:35;15.43;;;9.27;;
3433;SDS011;1730;41.932;25.548;2022-10-16T09:30:01;14.13;;;10.23;;
3433;SDS011;1730;41.932;25.548;2022-10-16T09:32:34;14.13;;;10.80;;
3433;SDS011;1730;41.932;25.548;2022-10-16T09:35:00;11.30;;;9.57;;
3433;SDS011;1730;41.932;25.548;2022-10-16T09:37:26;14.53;;;10.67;;
3433;SDS011;1730;41.932;25.548;2022-10-16T09:39:53;15.27;;;11.13;;
3433;SDS011;1730;41.932;25.548;2022-10-16T09:42:23;15.83;;;10.90;;
3433;SDS011;1730;41.932;25.548;2022-10-16T09:44:55;15.23;;;10.33;;
3433;SDS011;1730;41.932;25.548;2022-10-16T09:47:25;10.80;;;9.67;;
3433;SDS011;1730;41.932;25.548;2022-10-16T09:50:03;12.03;;;10.43;;
3433;SDS011;1730;41.932;25.548;2022-10-16T09:52:44;12.30;;;9.63;;
3433;SDS011;1730;41.932;25.548;2022-10-16T09:55:13;11.40;;;9.90;;
3433;SDS011;1730;41.932;25.548;2022-10-16T09:57:50;11.00;;;9.93;;
3433;SDS011;1730;41.932;25.548;2022-10-16T10:00:20;13.47;;;10.10;;
3433;SDS011;1730;41.932;25.548;2022-10-16T10:02:46;11.27;;;10.10;;
3433;SDS011;1730;41.932;25.548;2022-10-16T10:05:26;11.83;;;10.27;;
3433;SDS011;1730;41.932;25.548;2022-10-16T10:07:56;16.67;;;12.27;;
3433;SDS011;1730;41.932;25.548;2022-10-16T10:10:30;11.37;;;10.20;;
3433;SDS011;1730;41.932;25.548;2022-10-16T10:13:01;14.30;;;11.17;;
3433;SDS011;1730;41.932;25.548;2022-10-16T10:15:27;11.23;;;10.07;;
3433;SDS011;1730;41.932;25.548;2022-10-16T10:17:58;11.80;;;10.30;;
3433;SDS011;1730;41.932;25.548;2022-10-16T10:22:53;11.57;;;10.47;;
3433;SDS011;1730;41.932;25.548;2022-10-16T10:33:28;15.27;;;9.63;;
3433;SDS011;1730;41.932;25.548;2022-10-16T10:36:09;12.47;;;8.63;;
3433;SDS011;1730;41.932;25.548;2022-10-16T10:55:03;10.43;;;9.50;;
3433;SDS011;1730;41.932;25.548;2022-10-16T10:58:22;11.23;;;9.47;;
3433;SDS011;1730;41.932;25.548;2022-10-16T11:06:06;7.53;;;6.93;;
3433;SDS011;1730;41.932;25.548;2022-10-16T11:11:16;8.10;;;7.40;;
3433;SDS011;1730;41.932;25.548;2022-10-16T11:13:54;14.40;;;9.13;;
3433;SDS011;1730;41.932;25.548;2022-10-16T11:16:28;7.87;;;7.27;;
3433;SDS011;1730;41.932;25.548;2022-10-16T11:21:55;9.00;;;7.80;;
3433;SDS011;1730;41.932;25.548;2022-10-16T11:24:41;8.77;;;7.90;;
3433;SDS011;1730;41.932;25.548;2022-10-16T11:27:12;8.00;;;7.40;;
3433;SDS011;1730;41.932;25.548;2022-10-16T11:29:46;12.10;;;7.27;;
3433;SDS011;1730;41.932;25.548;2022-10-16T11:32:32;7.70;;;7.10;;
3433;SDS011;1730;41.932;25.548;2022-10-16T11:35:06;8.60;;;7.10;;
3433;SDS011;1730;41.932;25.548;2022-10-16T11:37:41;10.00;;;6.83;;
3433;SDS011;1730;41.932;25.548;2022-10-16T11:40:19;7.50;;;6.80;;
3433;SDS011;1730;41.932;25.548;2022-10-16T11:42:55;7.10;;;6.40;;
3433;SDS011;1730;41.932;25.548;2022-10-16T11:48:04;7.00;;;6.40;;
3433;SDS011;1730;41.932;25.548;2022-10-16T11:50:43;6.83;;;6.33;;
3433;SDS011;1730;41.932;25.548;2022-10-16T11:56:41;6.17;;;5.67;;
3433;SDS011;1730;41.932;25.548;2022-10-16T12:04:53;5.23;;;4.83;;
3433;SDS011;1730;41.932;25.548;2022-10-16T12:07:46;5.37;;;4.87;;
3433;SDS011;1730;41.932;25.548;2022-10-16T12:10:24;5.37;;;4.87;;
3433;SDS011;1730;41.932;25.548;2022-10-16T12:12:51;7.30;;;5.17;;
3433;SDS011;1730;41.932;25.548;2022-10-16T12:17:45;6.13;;;4.90;;
3433;SDS011;1730;41.932;25.548;2022-10-16T12:22:40;4.80;;;4.40;;
3433;SDS011;1730;41.932;25.548;2022-10-16T12:27:57;4.80;;;4.23;;
3433;SDS011;1730;41.932;25.548;2022-10-16T12:30:43;9.50;;;4.80;;
3433;SDS011;1730;41.932;25.548;2022-10-16T12:33:22;5.07;;;4.67;;
3433;SDS011;1730;41.932;25.548;2022-10-16T12:35:50;5.03;;;4.40;;
3433;SDS011;1730;41.932;25.548;2022-10-16T12:41:11;5.20;;;4.43;;
3433;SDS011;1730;41.932;25.548;2022-10-16T12:43:40;4.77;;;4.47;;
3433;SDS011;1730;41.932;25.548;2022-10-16T12:48:33;7.77;;;4.60;;
3433;SDS011;1730;41.932;25.548;2022-10-16T12:51:12;5.43;;;4.90;;
3433;SDS011;1730;41.932;25.548;2022-10-16T12:54:01;4.87;;;4.37;;
3433;SDS011;1730;41.932;25.548;2022-10-16T12:56:34;5.87;;;5.47;;
3433;SDS011;1730;41.932;25.548;2022-10-16T13:12:41;4.50;;;4.20;;
3433;SDS011;1730;41.932;25.548;2022-10-16T13:17:52;4.80;;;4.40;;
3433;SDS011;1730;41.932;25.548;2022-10-16T13:20:30;6.27;;;4.87;;
3433;SDS011;1730;41.932;25.548;2022-10-16T13:23:15;6.57;;;4.87;;
3433;SDS011;1730;41.932;25.548;2022-10-16T13:26:01;5.53;;;5.07;;
3433;SDS011;1730;41.932;25.548;2022-10-16T13:28:42;4.60;;;4.20;;
3433;SDS011;1730;41.932;25.548;2022-10-16T13:31:18;4.63;;;4.20;;
3433;SDS011;1730;41.932;25.548;2022-10-16T13:33:49;8.90;;;4.67;;
3433;SDS011;1730;41.932;25.548;2022-10-16T13:36:30;7.40;;;4.70;;
3433;SDS011;1730;41.932;25.548;2022-10-16T13:39:02;6.60;;;4.77;;
3433;SDS011;1730;41.932;25.548;2022-10-16T13:41:36;6.23;;;4.60;;
3433;SDS011;1730;41.932;25.548;2022-10-16T13:44:02;7.40;;;5.37;;
3433;SDS011;1730;41.932;25.548;2022-10-16T13:46:30;6.43;;;4.83;;
3433;SDS011;1730;41.932;25.548;2022-10-16T13:49:01;10.70;;;4.87;;
3433;SDS011;1730;41.932;25.548;2022-10-16T13:51:36;5.53;;;5.00;;
3433;SDS011;1730;41.932;25.548;2022-10-16T13:54:01;5.63;;;4.63;;
3433;SDS011;1730;41.932;25.548;2022-10-16T13:56:28;11.47;;;4.20;;
3433;SDS011;1730;41.932;25.548;2022-10-16T13:59:06;5.03;;;4.17;;
3433;SDS011;1730;41.932;25.548;2022-10-16T14:01:47;6.43;;;4.23;;
3433;SDS011;1730;41.932;25.548;2022-10-16T14:04:14;7.20;;;4.40;;
3433;SDS011;1730;41.932;25.548;2022-10-16T14:06:41;9.77;;;4.47;;
3433;SDS011;1730;41.932;25.548;2022-10-16T14:09:24;12.83;;;3.50;;
3433;SDS011;1730;41.932;25.548;2022-10-16T14:12:02;4.07;;;3.63;;
3433;SDS011;1730;41.932;25.548;2022-10-16T14:14:43;3.90;;;3.30;;
3433;SDS011;1730;41.932;25.548;2022-10-16T14:17:15;3.53;;;3.23;;
3433;SDS011;1730;41.932;25.548;2022-10-16T14:19:45;9.37;;;3.33;;
3433;SDS011;1730;41.932;25.548;2022-10-16T14:22:21;7.20;;;3.27;;
3433;SDS011;1730;41.932;25.548;2022-10-16T14:24:47;5.07;;;2.93;;
3433;SDS011;1730;41.932;25.548;2022-10-16T14:27:33;3.90;;;3.53;;
3433;SDS011;1730;41.932;25.548;2022-10-16T14:30:19;9.07;;;3.80;;
3433;SDS011;1730;41.932;25.548;2022-10-16T14:32:57;3.07;;;2.87;;
3433;SDS011;1730;41.932;25.548;2022-10-16T14:35:32;3.77;;;3.47;;
3433;SDS011;1730;41.932;25.548;2022-10-16T14:38:00;4.77;;;3.43;;
3433;SDS011;1730;41.932;25.548;2022-10-16T14:40:29;4.63;;;3.50;;
3433;SDS011;1730;41.932;25.548;2022-10-16T14:42:56;3.10;;;2.80;;
3433;SDS011;1730;41.932;25.548;2022-10-16T14:45:27;3.70;;;3.40;;
3433;SDS011;1730;41.932;25.548;2022-10-16T14:48:05;6.33;;;3.50;;
3433;SDS011;1730;41.932;25.548;2022-10-16T14:50:41;4.37;;;4.07;;
3433;SDS011;1730;41.932;25.548;2022-10-16T14:53:11;5.10;;;4.60;;
3433;SDS011;1730;41.932;25.548;2022-10-16T14:55:37;4.93;;;4.53;;
3433;SDS011;1730;41.932;25.548;2022-10-16T14:58:04;5.07;;;4.67;;
3433;SDS011;1730;41.932;25.548;2022-10-16T15:00:30;3.87;;;3.57;;
3433;SDS011;1730;41.932;25.548;2022-10-16T15:02:55;6.70;;;4.43;;
3433;SDS011;1730;41.932;25.548;2022-10-16T15:05:22;5.70;;;4.47;;
3433;SDS011;1730;41.932;25.548;2022-10-16T15:07:50;5.63;;;3.97;;
3433;SDS011;1730;41.932;25.548;2022-10-16T15:10:17;6.90;;;4.10;;
3433;SDS011;1730;41.932;25.548;2022-10-16T15:12:43;8.10;;;4.40;;
3433;SDS011;1730;41.932;25.548;2022-10-16T15:18:06;7.90;;;4.40;;
3433;SDS011;1730;41.932;25.548;2022-10-16T15:20:35;9.27;;;4.77;;
3433;SDS011;1730;41.932;25.548;2022-10-16T15:23:02;21.83;;;6.03;;
3433;SDS011;1730;41.932;25.548;2022-10-16T15:25:31;10.33;;;6.17;;
3433;SDS011;1730;41.932;25.548;2022-10-16T15:28:17;10.87;;;6.53;;
3433;SDS011;1730;41.932;25.548;2022-10-16T15:30:44;9.37;;;6.90;;
3433;SDS011;1730;41.932;25.548;2022-10-16T15:33:12;14.37;;;7.07;;
3433;SDS011;1730;41.932;25.548;2022-10-16T15:35:42;26.23;;;7.33;;
3433;SDS011;1730;41.932;25.548;2022-10-16T15:38:11;8.50;;;6.93;;
3433;SDS011;1730;41.932;25.548;2022-10-16T15:40:38;11.20;;;7.73;;
3433;SDS011;1730;41.932;25.548;2022-10-16T15:43:04;8.27;;;6.90;;
3433;SDS011;1730;41.932;25.548;2022-10-16T15:45:30;16.73;;;9.30;;
3433;SDS011;1730;41.932;25.548;2022-10-16T15:47:56;8.70;;;7.10;;
3433;SDS011;1730;41.932;25.548;2022-10-16T15:50:22;8.50;;;7.30;;
3433;SDS011;1730;41.932;25.548;2022-10-16T15:52:47;7.03;;;6.20;;
3433;SDS011;1730;41.932;25.548;2022-10-16T15:55:13;15.37;;;9.37;;
3433;SDS011;1730;41.932;25.548;2022-10-16T15:57:39;15.60;;;8.97;;
3433;SDS011;1730;41.932;25.548;2022-10-16T16:00:09;16.77;;;8.23;;
3433;SDS011;1730;41.932;25.548;2022-10-16T16:02:42;13.57;;;8.07;;
3433;SDS011;1730;41.932;25.548;2022-10-16T16:05:08;12.10;;;7.97;;
3433;SDS011;1730;41.932;25.548;2022-10-16T16:07:36;19.93;;;9.50;;
3433;SDS011;1730;41.932;25.548;2022-10-16T16:10:03;15.47;;;10.43;;
3433;SDS011;1730;41.932;25.548;2022-10-16T16:12:29;19.83;;;12.57;;
3433;SDS011;1730;41.932;25.548;2022-10-16T16:14:55;18.20;;;11.27;;
3433;SDS011;1730;41.932;25.548;2022-10-16T16:17:20;19.47;;;13.43;;
3433;SDS011;1730;41.932;25.548;2022-10-16T16:19:46;19.17;;;14.67;;
3433;SDS011;1730;41.932;25.548;2022-10-16T16:22:12;27.37;;;17.07;;
3433;SDS011;1730;41.932;25.548;2022-10-16T16:24:38;24.30;;;15.30;;
3433;SDS011;1730;41.932;25.548;2022-10-16T16:27:03;21.83;;;14.30;;
3433;SDS011;1730;41.932;25.548;2022-10-16T16:29:29;18.67;;;12.30;;
3433;SDS011;1730;41.932;25.548;2022-10-16T16:31:54;19.33;;;13.60;;
3433;SDS011;1730;41.932;25.548;2022-10-16T16:34:25;18.60;;;12.80;;
3433;SDS011;1730;41.932;25.548;2022-10-16T16:36:52;15.83;;;10.60;;
3433;SDS011;1730;41.932;25.548;2022-10-16T16:39:18;16.07;;;10.77;;
3433;SDS011;1730;41.932;25.548;2022-10-16T16:41:44;26.00;;;12.37;;
3433;SDS011;1730;41.932;25.548;2022-10-16T16:44:13;19.67;;;11.33;;
3433;SDS011;1730;41.932;25.548;2022-10-16T16:46:39;24.23;;;12.37;;
3433;SDS011;1730;41.932;25.548;2022-10-16T16:49:09;23.83;;;13.13;;
3433;SDS011;1730;41.932;25.548;2022-10-16T16:51:36;26.60;;;14.13;;
3433;SDS011;1730;41.932;25.548;2022-10-16T16:54:02;19.13;;;13.10;;
3433;SDS011;1730;41.932;25.548;2022-10-16T16:56:27;18.57;;;11.00;;
3433;SDS011;1730;41.932;25.548;2022-10-16T16:58:54;24.80;;;14.00;;
3433;SDS011;1730;41.932;25.548;2022-10-16T17:01:21;22.53;;;12.03;;
3433;SDS011;1730;41.932;25.548;2022-10-16T17:03:49;15.67;;;8.97;;